createdAt,value
2017-12-03T00:00:52.573Z,30.80
2017-12-03T00:03:18.758Z,29.80
2017-12-03T00:05:45.721Z,30.23
2017-12-03T00:08:11.909Z,31.10
2017-12-03T00:10:38.854Z,30.35
2017-12-03T00:13:05.047Z,29.83
2017-12-03T00:15:31.212Z,29.12
2017-12-03T00:17:57.380Z,29.83
2017-12-03T00:20:23.605Z,28.00
2017-12-03T00:22:50.558Z,33.08
2017-12-03T00:25:16.762Z,29.58
2017-12-03T00:27:42.973Z,28.85
2017-12-03T00:30:09.165Z,28.58
2017-12-03T00:32:36.109Z,28.35
2017-12-03T00:35:02.289Z,30.05
2017-12-03T00:37:28.474Z,29.05
2017-12-03T00:39:54.665Z,31.42
2017-12-03T00:42:21.113Z,29.67
2017-12-03T00:44:47.477Z,27.37
2017-12-03T00:47:13.643Z,30.50
2017-12-03T00:49:39.859Z,30.15
2017-12-03T00:52:06.031Z,29.25
2017-12-03T00:54:32.193Z,30.12
2017-12-03T00:56:58.392Z,29.42
2017-12-03T00:59:24.558Z,29.05
2017-12-03T01:01:50.704Z,28.25
2017-12-03T01:04:16.876Z,28.60
2017-12-03T01:06:43.058Z,27.05
2017-12-03T01:09:10.016Z,29.45
2017-12-03T01:11:36.188Z,27.75
2017-12-03T01:14:03.092Z,27.52
2017-12-03T01:16:29.296Z,27.95
2017-12-03T01:18:55.510Z,29.35
2017-12-03T01:21:22.425Z,29.08
2017-12-03T01:23:48.616Z,27.40
2017-12-03T01:26:14.826Z,28.30
2017-12-03T01:28:41.766Z,26.23
2017-12-03T01:31:08.668Z,29.12
2017-12-03T01:33:34.869Z,29.50
2017-12-03T01:36:01.058Z,28.17
2017-12-03T01:38:27.253Z,26.15
2017-12-03T01:40:53.453Z,27.70
2017-12-03T01:43:20.492Z,25.88
2017-12-03T01:45:46.838Z,24.95
2017-12-03T01:48:13.029Z,27.65
2017-12-03T01:50:39.205Z,26.75
2017-12-03T01:53:06.144Z,25.92
2017-12-03T01:55:32.337Z,26.27
2017-12-03T01:57:58.510Z,25.73
2017-12-03T02:00:24.685Z,26.02
2017-12-03T02:02:50.937Z,26.90
2017-12-03T02:05:17.130Z,26.33
2017-12-03T02:07:44.063Z,26.42
2017-12-03T02:10:10.261Z,23.95
2017-12-03T02:12:36.453Z,24.27
2017-12-03T02:15:03.387Z,25.25
2017-12-03T02:17:30.345Z,24.48
2017-12-03T02:19:57.244Z,23.62
2017-12-03T02:22:23.433Z,25.05
2017-12-03T02:24:50.383Z,24.37
2017-12-03T02:27:16.544Z,22.37
2017-12-03T02:29:42.725Z,23.10
2017-12-03T02:32:08.945Z,21.77
2017-12-03T02:34:35.133Z,23.80
2017-12-03T02:37:01.311Z,21.83
2017-12-03T02:39:27.538Z,20.65
2017-12-03T02:41:53.726Z,20.77
2017-12-03T02:44:20.714Z,22.00
2017-12-03T02:46:47.125Z,19.75
2017-12-03T02:49:13.345Z,20.30
2017-12-03T02:51:40.261Z,19.35
2017-12-03T02:54:06.432Z,20.10
2017-12-03T02:56:33.375Z,18.73
2017-12-03T02:59:00.325Z,18.95
2017-12-03T03:01:26.504Z,16.77
2017-12-03T03:03:52.660Z,18.65
2017-12-03T03:06:18.841Z,18.17
2017-12-03T03:08:45.769Z,17.55
2017-12-03T03:11:11.943Z,18.33
2017-12-03T03:13:38.108Z,16.30
2017-12-03T03:16:04.339Z,15.88
2017-12-03T03:18:30.508Z,16.83
2017-12-03T03:20:56.673Z,17.55
2017-12-03T03:23:22.893Z,15.45
2017-12-03T03:25:49.805Z,15.48
2017-12-03T03:28:17.462Z,15.82
2017-12-03T03:30:43.694Z,14.95
2017-12-03T03:33:09.852Z,14.05
2017-12-03T03:35:36.009Z,13.57
2017-12-03T03:38:02.946Z,14.38
2017-12-03T03:40:29.857Z,14.85
2017-12-03T03:42:56.037Z,13.27
2017-12-03T03:45:23.113Z,13.43
2017-12-03T03:47:50.217Z,14.10
2017-12-03T03:50:16.384Z,13.38
2017-12-03T03:52:43.332Z,13.10
2017-12-03T03:55:10.250Z,12.95
2017-12-03T03:57:36.417Z,12.57
2017-12-03T04:00:03.349Z,12.88
2017-12-03T04:02:29.505Z,13.40
2017-12-03T04:04:55.686Z,12.55
2017-12-03T04:07:21.896Z,11.57
2017-12-03T04:09:48.093Z,11.50
2017-12-03T04:12:15.003Z,13.18
2017-12-03T04:14:41.190Z,10.95
2017-12-03T04:17:07.376Z,10.32
2017-12-03T04:19:33.561Z,10.40
2017-12-03T04:21:59.763Z,10.70
2017-12-03T04:24:26.104Z,10.88
2017-12-03T04:26:52.285Z,12.25
2017-12-03T04:29:18.476Z,11.32
2017-12-03T04:31:45.509Z,12.25
2017-12-03T04:34:11.670Z,9.40
2017-12-03T04:36:37.865Z,10.27
2017-12-03T04:39:04.063Z,11.65
2017-12-03T04:41:30.233Z,8.98
2017-12-03T04:43:56.421Z,9.30
2017-12-03T04:46:23.520Z,9.00
2017-12-03T04:48:50.687Z,10.40
2017-12-03T04:51:16.873Z,9.50
2017-12-03T04:53:43.065Z,9.18
2017-12-03T04:56:09.223Z,8.38
2017-12-03T04:58:36.137Z,8.63
2017-12-03T05:01:02.293Z,8.73
2017-12-03T05:03:29.334Z,8.80
2017-12-03T05:05:55.576Z,9.13
2017-12-03T05:08:22.516Z,8.40
2017-12-03T05:10:48.703Z,9.98
2017-12-03T05:13:14.903Z,9.15
2017-12-03T05:15:41.798Z,9.90
2017-12-03T05:18:07.961Z,9.30
2017-12-03T05:20:34.116Z,9.70
2017-12-03T05:23:01.025Z,9.05
2017-12-03T05:25:27.183Z,9.70
2017-12-03T05:27:53.376Z,9.90
2017-12-03T05:30:19.557Z,9.13
2017-12-03T05:32:45.760Z,9.75
2017-12-03T05:35:12.082Z,9.55
2017-12-03T05:37:38.245Z,9.90
2017-12-03T05:40:04.426Z,9.70
2017-12-03T05:42:32.230Z,9.40
2017-12-03T05:44:58.386Z,11.15
2017-12-03T05:47:24.628Z,9.48
2017-12-03T05:49:50.958Z,9.50
2017-12-03T05:52:17.138Z,10.07
2017-12-03T05:54:43.358Z,9.73
2017-12-03T05:57:09.541Z,9.30
2017-12-03T05:59:35.697Z,10.02
2017-12-03T06:02:01.885Z,10.65
2017-12-03T06:04:28.104Z,10.32
2017-12-03T06:06:54.297Z,11.18
2017-12-03T06:09:20.476Z,10.60
2017-12-03T06:11:46.667Z,11.50
2017-12-03T06:14:13.615Z,10.68
2017-12-03T06:16:39.813Z,11.25
2017-12-03T06:19:05.998Z,12.00
2017-12-03T06:21:32.942Z,11.73
2017-12-03T06:23:59.840Z,10.95
2017-12-03T06:26:26.015Z,10.60
2017-12-03T06:28:52.176Z,11.48
2017-12-03T06:31:19.081Z,10.60
2017-12-03T06:33:45.270Z,10.90
2017-12-03T06:36:11.457Z,11.60
2017-12-03T06:38:37.625Z,10.60
2017-12-03T06:41:04.568Z,9.85
2017-12-03T06:43:31.485Z,10.75
2017-12-03T06:45:57.681Z,10.43
2017-12-03T06:48:24.134Z,9.95
2017-12-03T06:50:50.495Z,10.88
2017-12-03T06:53:16.677Z,10.07
2017-12-03T06:55:42.906Z,11.20
2017-12-03T06:58:09.133Z,9.82
2017-12-03T07:00:35.318Z,10.25
2017-12-03T07:03:01.525Z,10.90
2017-12-03T07:05:27.678Z,11.05
2017-12-03T07:07:53.853Z,10.60
2017-12-03T07:10:20.051Z,11.30
2017-12-03T07:12:46.230Z,11.98
2017-12-03T07:15:13.153Z,11.43
2017-12-03T07:17:39.373Z,11.63
2017-12-03T07:20:06.333Z,12.70
2017-12-03T07:22:32.506Z,12.45
2017-12-03T07:24:58.716Z,13.25
2017-12-03T07:27:24.957Z,11.52
2017-12-03T07:29:51.882Z,12.50
2017-12-03T07:32:18.079Z,12.45
2017-12-03T07:34:44.269Z,13.38
2017-12-03T07:37:11.205Z,13.32
2017-12-03T07:39:37.394Z,14.15
2017-12-03T07:42:03.589Z,13.20
2017-12-03T07:44:29.775Z,14.52
2017-12-03T07:46:55.968Z,12.10
2017-12-03T07:49:22.229Z,12.68
2017-12-03T07:51:48.652Z,12.10
2017-12-03T07:54:14.840Z,12.00
2017-12-03T07:56:41.022Z,12.03
2017-12-03T07:59:07.213Z,12.20
2017-12-03T08:01:33.416Z,11.60
2017-12-03T08:03:59.627Z,12.07
2017-12-03T08:06:25.821Z,13.40
2017-12-03T08:08:52.044Z,14.20
2017-12-03T08:11:18.229Z,13.07
2017-12-03T08:13:45.245Z,13.57
2017-12-03T08:16:12.242Z,12.43
2017-12-03T08:18:38.464Z,11.77
2017-12-03T08:21:04.677Z,12.97
2017-12-03T08:23:30.949Z,12.75
2017-12-03T08:25:57.228Z,13.07
2017-12-03T08:28:24.194Z,13.62
2017-12-03T08:30:50.394Z,14.00
2017-12-03T08:33:16.593Z,13.90
2017-12-03T08:35:42.776Z,14.13
2017-12-03T08:38:09.010Z,13.77
2017-12-03T08:40:35.314Z,13.18
2017-12-03T08:43:01.558Z,15.10
2017-12-03T08:45:27.805Z,14.93
2017-12-03T08:48:01.191Z,15.35
2017-12-03T08:50:27.477Z,14.07
2017-12-03T08:52:53.953Z,14.30
2017-12-03T08:55:25.188Z,13.80
2017-12-03T08:57:51.443Z,13.25
2017-12-03T09:00:17.619Z,13.97
2017-12-03T09:02:44.712Z,13.43
2017-12-03T09:05:10.953Z,13.98
2017-12-03T09:07:37.409Z,12.30
2017-12-03T09:10:03.697Z,13.63
2017-12-03T09:12:30.705Z,15.27
2017-12-03T09:14:56.965Z,12.60
2017-12-03T09:17:23.356Z,13.45
2017-12-03T09:19:49.683Z,13.33
2017-12-03T09:22:15.923Z,13.32
2017-12-03T09:24:42.122Z,12.05
2017-12-03T09:27:09.085Z,12.88
2017-12-03T09:29:36.036Z,13.30
2017-12-03T09:32:02.282Z,14.38
2017-12-03T09:34:28.701Z,13.02
2017-12-03T09:36:55.630Z,11.77
2017-12-03T09:39:23.938Z,10.98
2017-12-03T09:41:50.217Z,11.52
2017-12-03T09:44:16.400Z,12.05
2017-12-03T09:46:42.600Z,11.90
2017-12-03T09:49:08.837Z,10.80
2017-12-03T09:51:35.157Z,10.98
2017-12-03T09:54:02.170Z,10.77
2017-12-03T09:56:28.405Z,11.70
2017-12-03T09:58:54.657Z,11.00
2017-12-03T10:01:24.169Z,11.77
2017-12-03T10:03:50.392Z,12.73
2017-12-03T10:06:17.502Z,12.73
2017-12-03T10:08:43.683Z,12.97
2017-12-03T10:11:09.928Z,12.55
2017-12-03T10:13:36.192Z,11.25
2017-12-03T10:16:02.437Z,12.98
2017-12-03T10:18:28.684Z,12.70
2017-12-03T10:20:54.944Z,11.50
2017-12-03T10:23:23.361Z,12.33
2017-12-03T10:25:50.614Z,11.23
2017-12-03T10:28:16.990Z,12.70
2017-12-03T10:30:43.294Z,12.37
2017-12-03T10:33:09.589Z,11.23
2017-12-03T10:35:36.590Z,11.50
2017-12-03T10:38:05.649Z,12.30
2017-12-03T10:40:32.641Z,12.10
2017-12-03T10:42:58.850Z,12.60
2017-12-03T10:45:25.017Z,13.07
2017-12-03T10:47:51.191Z,14.70
2017-12-03T10:50:17.406Z,12.93
2017-12-03T10:52:43.669Z,14.10
2017-12-03T10:55:10.099Z,13.52
2017-12-03T10:57:36.261Z,13.73
2017-12-03T11:00:02.430Z,15.13
2017-12-03T11:02:28.642Z,14.10
2017-12-03T11:04:54.821Z,16.52
2017-12-03T11:07:21.732Z,16.20
2017-12-03T11:09:47.925Z,15.87
2017-12-03T11:12:14.092Z,16.87
2017-12-03T11:14:40.250Z,18.73
2017-12-03T11:17:06.420Z,18.92
2017-12-03T11:19:33.338Z,19.27
2017-12-03T11:21:59.514Z,19.37
2017-12-03T11:24:26.428Z,20.37
2017-12-03T11:26:52.613Z,20.00
2017-12-03T11:29:19.516Z,17.37
2017-12-03T11:31:45.721Z,20.00
2017-12-03T11:34:11.910Z,18.13
2017-12-03T11:36:38.972Z,18.95
2017-12-03T11:39:05.247Z,18.70
2017-12-03T11:41:31.808Z,19.70
2017-12-03T11:43:58.112Z,18.57
2017-12-03T11:46:25.054Z,19.70
2017-12-03T11:48:51.231Z,19.60
2017-12-03T11:51:17.477Z,19.40
2017-12-03T11:53:43.740Z,20.30
2017-12-03T11:56:10.170Z,21.23
2017-12-03T11:58:36.551Z,22.42
2017-12-03T12:01:02.750Z,22.70
2017-12-03T12:03:29.756Z,22.93
2017-12-03T12:05:55.948Z,21.83
2017-12-03T12:08:22.161Z,21.80
2017-12-03T12:10:49.410Z,22.90
2017-12-03T12:13:15.572Z,22.17
2017-12-03T12:15:41.769Z,23.37
2017-12-03T12:18:07.966Z,23.87
2017-12-03T12:20:34.378Z,23.30
2017-12-03T12:23:00.669Z,23.17
2017-12-03T12:25:27.123Z,23.10
2017-12-03T12:27:53.321Z,22.90
2017-12-03T12:30:19.524Z,24.43
2017-12-03T12:32:45.700Z,25.80
2017-12-03T12:35:11.908Z,25.10
2017-12-03T12:37:38.135Z,26.40
2017-12-03T12:40:04.339Z,26.33
2017-12-03T12:42:31.292Z,27.23
2017-12-03T12:44:58.291Z,30.70
2017-12-03T12:47:24.757Z,25.50
2017-12-03T12:49:51.030Z,26.20
2017-12-03T12:52:18.757Z,25.50
2017-12-03T12:54:46.089Z,27.20
2017-12-03T12:57:12.769Z,27.67
2017-12-03T12:59:39.697Z,30.60
2017-12-03T13:02:05.893Z,27.33
2017-12-03T13:04:56.321Z,31.53
2017-12-03T13:07:22.956Z,32.47
2017-12-03T13:09:51.399Z,30.17
2017-12-03T13:12:19.414Z,30.13
2017-12-03T13:17:53.316Z,31.57
2017-12-03T13:20:19.473Z,33.07
2017-12-03T13:22:45.626Z,30.80
2017-12-03T13:25:13.553Z,28.00
2017-12-03T13:27:39.712Z,34.13
2017-12-03T13:33:12.597Z,29.17
2017-12-03T13:38:42.393Z,30.10
2017-12-03T13:41:08.573Z,27.50
2017-12-03T13:43:35.502Z,30.27
2017-12-03T13:46:02.984Z,28.33
2017-12-03T13:48:30.688Z,26.87
2017-12-03T13:50:57.654Z,26.80
2017-12-03T13:53:24.028Z,26.23
2017-12-03T13:55:51.017Z,26.23
2017-12-03T13:58:17.852Z,23.40
2017-12-03T14:00:44.964Z,26.10
2017-12-03T14:03:12.127Z,24.37
2017-12-03T14:05:38.512Z,24.43
2017-12-03T14:08:05.122Z,24.90
2017-12-03T14:10:31.336Z,23.80
2017-12-03T14:12:57.624Z,22.13
2017-12-03T14:15:23.837Z,20.90
2017-12-03T14:17:50.057Z,21.87
2017-12-03T14:20:16.235Z,22.70
2017-12-03T14:22:42.464Z,21.63
2017-12-03T14:25:09.627Z,22.70
2017-12-03T14:27:36.305Z,24.17
2017-12-03T14:30:04.546Z,35.30
2017-12-03T14:32:31.019Z,27.70
2017-12-03T14:34:57.226Z,25.03
2017-12-03T14:37:24.148Z,26.00
2017-12-03T14:39:50.356Z,24.07
2017-12-03T14:42:16.533Z,26.27
2017-12-03T14:44:43.502Z,23.37
2017-12-03T14:47:09.715Z,25.77
2017-12-03T14:49:35.903Z,26.53
2017-12-03T14:52:02.119Z,27.67
2017-12-03T14:54:28.358Z,26.50
2017-12-03T14:56:55.034Z,26.40
2017-12-03T14:59:21.345Z,28.90
2017-12-03T15:01:47.520Z,61.27
2017-12-03T15:04:13.783Z,32.20
2017-12-03T15:06:40.221Z,27.80
2017-12-03T15:09:06.581Z,29.07
2017-12-03T15:11:33.042Z,26.10
2017-12-03T15:14:00.898Z,26.40
2017-12-03T15:16:28.764Z,25.60
2017-12-03T15:18:54.996Z,24.87
2017-12-03T15:21:21.897Z,24.90
2017-12-03T15:23:48.065Z,24.63
2017-12-03T15:26:15.012Z,24.87
2017-12-03T15:28:42.040Z,22.90
2017-12-03T15:31:08.234Z,23.77
2017-12-03T15:33:34.402Z,23.27
2017-12-03T15:36:00.598Z,23.47
2017-12-03T15:38:26.778Z,25.80
2017-12-03T15:40:52.947Z,23.70
2017-12-03T15:43:19.536Z,25.77
2017-12-03T15:45:45.833Z,24.13
2017-12-03T15:48:12.029Z,24.37
2017-12-03T15:50:38.242Z,27.37
2017-12-03T15:53:04.425Z,27.00
2017-12-03T15:55:31.335Z,25.47
2017-12-03T15:57:58.362Z,26.70
2017-12-03T16:00:25.544Z,26.47
2017-12-03T16:02:51.777Z,25.60
2017-12-03T16:05:17.981Z,25.73
2017-12-03T16:07:44.169Z,23.43
2017-12-03T16:10:11.094Z,27.17
2017-12-03T16:12:37.629Z,25.40
2017-12-03T16:15:05.155Z,25.00
2017-12-03T16:17:31.316Z,23.90
2017-12-03T16:19:57.503Z,23.93
2017-12-03T16:22:23.924Z,24.47
2017-12-03T16:24:51.598Z,24.47
2017-12-03T16:27:18.665Z,26.73
2017-12-03T16:29:45.123Z,25.80
2017-12-03T16:32:12.019Z,21.90
2017-12-03T16:34:38.205Z,24.70
2017-12-03T16:37:04.369Z,25.70
2017-12-03T16:39:31.255Z,25.47
2017-12-03T16:41:58.458Z,23.90
2017-12-03T16:44:25.077Z,23.10
2017-12-03T16:46:54.633Z,25.40
2017-12-03T16:49:23.032Z,25.47
2017-12-03T16:51:49.213Z,25.13
2017-12-03T16:54:16.367Z,22.70
2017-12-03T16:56:42.760Z,25.40
2017-12-03T16:59:09.042Z,22.63
2017-12-03T17:01:35.250Z,23.77
2017-12-03T17:04:02.231Z,23.30
2017-12-03T17:06:28.408Z,21.87
2017-12-03T17:08:54.623Z,22.37
2017-12-03T17:11:20.968Z,20.63
2017-12-03T17:13:47.137Z,20.77
2017-12-03T17:16:13.333Z,23.23
2017-12-03T17:18:39.560Z,19.97
2017-12-03T17:21:05.766Z,18.97
2017-12-03T17:23:31.949Z,18.97
2017-12-03T17:25:58.162Z,20.10
2017-12-03T17:28:24.308Z,21.20
2017-12-03T17:30:50.475Z,19.90
2017-12-03T17:33:16.755Z,20.67
2017-12-03T17:35:42.946Z,18.57
2017-12-03T17:38:09.866Z,21.27
2017-12-03T17:40:36.097Z,20.23
2017-12-03T17:43:03.052Z,18.83
2017-12-03T17:45:30.733Z,19.47
2017-12-03T17:47:56.915Z,19.40
2017-12-03T17:50:23.837Z,17.40
2017-12-03T17:52:50.020Z,20.03
2017-12-03T17:55:16.953Z,18.60
2017-12-03T17:57:43.129Z,20.87
2017-12-03T18:00:10.132Z,19.43
2017-12-03T18:02:36.565Z,20.00
2017-12-03T18:05:02.742Z,19.33
2017-12-03T18:07:28.930Z,19.00
2017-12-03T18:09:55.960Z,18.10
2017-12-03T18:12:22.902Z,19.40
2017-12-03T18:14:49.074Z,16.57
2017-12-03T18:17:16.174Z,17.87
2017-12-03T18:19:42.357Z,14.90
2017-12-03T18:22:08.557Z,17.00
2017-12-03T18:24:34.773Z,14.50
2017-12-03T18:27:00.950Z,15.90
2017-12-03T18:29:27.861Z,14.67
2017-12-03T18:31:54.401Z,13.80
2017-12-03T18:34:20.649Z,13.40
2017-12-03T18:36:46.868Z,17.13
2017-12-03T18:39:13.102Z,32.60
2017-12-03T18:41:39.296Z,13.93
2017-12-03T18:44:05.525Z,13.43
2017-12-03T18:46:31.761Z,11.87
2017-12-03T18:48:57.977Z,13.57
2017-12-03T18:51:24.905Z,13.33
2017-12-03T18:53:51.162Z,13.20
2017-12-03T18:56:18.109Z,11.53
2017-12-03T18:58:45.077Z,12.23
2017-12-03T19:01:12.100Z,11.70
2017-12-03T19:03:38.474Z,12.67
2017-12-03T19:06:04.702Z,11.63
2017-12-03T19:08:30.924Z,10.57
2017-12-03T19:10:57.845Z,9.33
2017-12-03T19:13:24.034Z,10.70
2017-12-03T19:15:50.308Z,11.00
2017-12-03T19:18:16.606Z,9.77
2017-12-03T19:20:43.042Z,10.00
2017-12-03T19:23:09.824Z,10.40
2017-12-03T19:25:36.030Z,10.90
2017-12-03T19:28:03.064Z,10.10
2017-12-03T19:30:30.469Z,8.73
2017-12-03T19:32:56.758Z,9.50
2017-12-03T19:35:23.674Z,8.73
2017-12-03T19:37:50.057Z,11.50
2017-12-03T19:40:16.327Z,11.33
2017-12-03T19:42:43.346Z,11.87
2017-12-03T19:45:09.567Z,9.70
2017-12-03T19:47:36.504Z,11.07
2017-12-03T19:50:03.511Z,12.10
2017-12-03T19:52:29.880Z,11.10
2017-12-03T19:54:56.163Z,10.70
2017-12-03T19:57:22.341Z,11.10
2017-12-03T19:59:49.388Z,29.77
2017-12-03T20:02:16.463Z,19.33
2017-12-03T20:04:42.809Z,12.67
2017-12-03T20:07:09.938Z,11.23
2017-12-03T20:09:36.877Z,10.50
2017-12-03T20:12:03.068Z,11.50
2017-12-03T20:14:30.158Z,11.23
2017-12-03T20:16:56.334Z,10.63
2017-12-03T20:19:22.755Z,11.10
2017-12-03T20:21:49.816Z,9.70
2017-12-03T20:24:16.051Z,11.27
2017-12-03T20:26:42.980Z,11.00
2017-12-03T20:29:09.578Z,11.90
2017-12-03T20:31:35.767Z,10.77
2017-12-03T20:34:01.985Z,9.67
2017-12-03T20:36:28.323Z,9.03
2017-12-03T20:38:54.512Z,9.37
2017-12-03T20:41:21.465Z,8.70
2017-12-03T20:43:47.721Z,13.93
2017-12-03T20:46:14.136Z,10.40
2017-12-03T20:48:40.539Z,8.13
2017-12-03T20:51:06.918Z,26.73
2017-12-03T20:53:33.125Z,11.10
2017-12-03T20:55:59.333Z,16.60
2017-12-03T20:58:25.531Z,8.07
2017-12-03T21:00:51.706Z,6.70
2017-12-03T21:03:18.101Z,10.77
2017-12-03T21:05:44.465Z,7.50
2017-12-03T21:08:11.447Z,7.53
2017-12-03T21:10:38.433Z,9.73
2017-12-03T21:13:04.693Z,6.50
2017-12-03T21:15:31.059Z,8.00
2017-12-03T21:17:58.081Z,5.60
2017-12-03T21:20:24.341Z,6.07
2017-12-03T21:22:50.622Z,7.50
2017-12-03T21:25:16.847Z,5.00
2017-12-03T21:27:43.770Z,6.33
2017-12-03T21:30:09.968Z,5.77
2017-12-03T21:32:36.137Z,5.30
2017-12-03T21:35:02.386Z,5.10
2017-12-03T21:37:28.578Z,5.57
2017-12-03T21:39:54.776Z,6.13
2017-12-03T21:42:21.032Z,6.77
2017-12-03T21:44:47.204Z,5.57
2017-12-03T21:47:13.385Z,7.07
2017-12-03T21:49:39.582Z,5.20
2017-12-03T21:52:05.742Z,5.33
2017-12-03T21:54:32.672Z,5.70
2017-12-03T21:56:58.870Z,5.20
2017-12-03T21:59:25.038Z,5.73
2017-12-03T22:01:51.206Z,4.93
2017-12-03T22:04:17.502Z,5.30
2017-12-03T22:06:43.937Z,4.93
2017-12-03T22:09:10.120Z,6.13
2017-12-03T22:11:36.325Z,5.17
2017-12-03T22:14:03.264Z,5.47
2017-12-03T22:16:29.453Z,6.43
2017-12-03T22:18:55.660Z,6.60
2017-12-03T22:21:21.821Z,4.70
2017-12-03T22:23:48.018Z,4.47
2017-12-03T22:26:14.245Z,5.53
2017-12-03T22:28:41.164Z,4.40
2017-12-03T22:31:07.329Z,4.20
2017-12-03T22:33:34.270Z,5.17
2017-12-03T22:36:00.486Z,5.13
2017-12-03T22:38:26.668Z,4.87
2017-12-03T22:40:53.602Z,5.27
2017-12-03T22:43:19.797Z,4.33
2017-12-03T22:45:45.980Z,3.80
2017-12-03T22:48:12.922Z,5.20
2017-12-03T22:50:39.829Z,3.80
2017-12-03T22:53:06.003Z,6.20
2017-12-03T22:55:32.927Z,4.43
2017-12-03T22:57:59.109Z,2.70
2017-12-03T23:00:33.068Z,4.10
2017-12-03T23:03:00.290Z,3.80
2017-12-03T23:05:27.557Z,4.10
2017-12-03T23:07:54.025Z,3.90
2017-12-03T23:10:20.983Z,3.00
2017-12-03T23:12:47.165Z,2.70
2017-12-03T23:15:13.390Z,3.60
2017-12-03T23:17:39.607Z,3.53
2017-12-03T23:20:06.594Z,3.50
2017-12-03T23:22:32.830Z,3.57
2017-12-03T23:24:58.997Z,2.80
2017-12-03T23:27:25.154Z,3.33
2017-12-03T23:29:51.336Z,2.57
2017-12-03T23:32:17.502Z,2.67
2017-12-03T23:34:43.684Z,2.83
2017-12-03T23:37:09.882Z,3.53
2017-12-03T23:39:36.089Z,3.00
2017-12-03T23:42:02.273Z,3.00
2017-12-03T23:44:28.464Z,2.87
2017-12-03T23:46:54.639Z,3.40
2017-12-03T23:49:21.574Z,3.50
2017-12-03T23:51:47.734Z,2.63
2017-12-03T23:54:13.929Z,2.93
2017-12-03T23:56:40.077Z,3.60
2017-12-03T23:59:07.005Z,2.97
